createdAt,value
2022-09-02T00:00:07.383Z,1.70
2022-09-02T00:02:35.390Z,1.57
2022-09-02T00:05:02.297Z,1.87
2022-09-02T00:07:29.161Z,1.80
2022-09-02T00:09:56.864Z,1.70
2022-09-02T00:12:23.711Z,1.53
2022-09-02T00:14:50.487Z,1.83
2022-09-02T00:17:17.317Z,1.73
2022-09-02T00:19:44.239Z,1.70
2022-09-02T00:22:11.025Z,1.80
2022-09-02T00:24:38.413Z,1.90
2022-09-02T00:27:05.267Z,1.60
2022-09-02T00:29:32.328Z,1.60
2022-09-02T00:31:59.132Z,1.67
2022-09-02T00:34:26.332Z,1.97
2022-09-02T00:36:53.157Z,1.80
2022-09-02T00:39:20.368Z,1.73
2022-09-02T00:41:47.323Z,1.90
2022-09-02T00:44:16.072Z,1.83
2022-09-02T00:46:43.238Z,1.50
2022-09-02T00:49:24.088Z,1.57
2022-09-02T00:52:06.418Z,1.80
2022-09-02T00:54:35.948Z,2.10
2022-09-02T00:57:06.759Z,2.07
2022-09-02T00:59:54.443Z,1.70
2022-09-02T01:02:25.431Z,1.60
2022-09-02T01:04:56.660Z,1.80
2022-09-02T01:07:24.105Z,2.00
2022-09-02T01:09:51.303Z,2.83
2022-09-02T01:12:18.295Z,1.70
2022-09-02T01:14:45.330Z,2.30
2022-09-02T01:17:12.158Z,1.70
2022-09-02T01:19:42.147Z,2.00
2022-09-02T01:22:19.769Z,1.80
2022-09-02T01:24:46.641Z,1.90
2022-09-02T01:27:17.572Z,2.00
2022-09-02T01:29:44.903Z,1.97
2022-09-02T01:32:12.253Z,1.73
2022-09-02T01:34:39.164Z,1.73
2022-09-02T01:37:07.031Z,2.00
2022-09-02T01:39:33.954Z,1.70
2022-09-02T01:42:01.155Z,1.67
2022-09-02T01:44:29.059Z,1.90
2022-09-02T01:46:55.976Z,1.80
2022-09-02T01:49:23.230Z,1.53
2022-09-02T01:51:53.865Z,1.60
2022-09-02T01:54:20.747Z,1.70
2022-09-02T01:56:47.606Z,1.77
2022-09-02T01:59:17.945Z,1.63
2022-09-02T02:01:45.679Z,1.90
2022-09-02T02:04:13.718Z,1.90
2022-09-02T02:06:48.258Z,2.17
2022-09-02T02:09:19.700Z,1.90
2022-09-02T02:11:47.215Z,2.07
2022-09-02T02:14:15.678Z,2.00
2022-09-02T02:16:48.022Z,2.00
2022-09-02T02:19:14.809Z,2.10
2022-09-02T02:21:42.028Z,2.07
2022-09-02T02:24:09.478Z,2.07
2022-09-02T02:26:36.404Z,2.00
2022-09-02T02:29:04.694Z,1.83
2022-09-02T02:31:32.715Z,1.83
2022-09-02T02:33:59.889Z,2.10
2022-09-02T02:36:26.860Z,1.83
2022-09-02T02:38:54.182Z,1.90
2022-09-02T02:41:21.067Z,1.93
2022-09-02T02:43:48.360Z,1.93
2022-09-02T02:46:15.572Z,2.10
2022-09-02T02:48:42.693Z,1.93
2022-09-02T02:51:10.336Z,1.50
2022-09-02T02:53:38.280Z,1.90
2022-09-02T02:56:05.684Z,1.70
2022-09-02T02:58:32.664Z,1.87
2022-09-02T03:01:00.959Z,1.80
2022-09-02T03:03:29.344Z,1.77
2022-09-02T03:05:56.791Z,1.73
2022-09-02T03:08:25.759Z,1.73
2022-09-02T03:10:54.421Z,1.67
2022-09-02T03:13:24.068Z,1.80
2022-09-02T03:15:51.429Z,1.80
2022-09-02T03:18:19.307Z,1.77
2022-09-02T03:20:48.109Z,2.33
2022-09-02T03:23:15.615Z,1.50
2022-09-02T03:25:46.619Z,1.77
2022-09-02T03:28:24.899Z,1.77
2022-09-02T03:30:52.353Z,1.63
2022-09-02T03:33:19.247Z,1.90
2022-09-02T03:35:46.709Z,1.60
2022-09-02T03:38:13.834Z,1.97
2022-09-02T03:40:41.180Z,1.80
2022-09-02T03:43:08.154Z,1.70
2022-09-02T03:45:38.705Z,2.20
2022-09-02T03:48:05.870Z,1.90
2022-09-02T03:50:39.809Z,1.73
2022-09-02T03:53:08.652Z,1.63
2022-09-02T03:55:37.363Z,1.80
2022-09-02T03:58:08.423Z,1.67
2022-09-02T04:00:38.279Z,1.80
2022-09-02T04:03:05.876Z,1.70
2022-09-02T04:05:33.464Z,1.80
2022-09-02T04:08:01.079Z,1.80
2022-09-02T04:10:28.472Z,1.60
2022-09-02T04:12:55.720Z,2.00
2022-09-02T04:15:22.937Z,1.60
2022-09-02T04:18:28.758Z,1.70
2022-09-02T04:21:16.733Z,1.70
2022-09-02T04:23:43.791Z,1.57
2022-09-02T04:26:12.196Z,1.43
2022-09-02T04:28:39.087Z,1.50
2022-09-02T04:31:07.270Z,1.80
2022-09-02T04:33:34.843Z,1.70
2022-09-02T04:36:04.931Z,2.00
2022-09-02T04:38:32.251Z,1.80
2022-09-02T04:40:59.975Z,2.23
2022-09-02T04:43:27.887Z,1.77
2022-09-02T04:45:54.740Z,1.70
2022-09-02T04:48:23.896Z,2.00
2022-09-02T04:50:50.766Z,1.80
2022-09-02T04:53:19.763Z,1.83
2022-09-02T04:55:46.939Z,1.90
2022-09-02T04:58:16.174Z,1.67
2022-09-02T05:00:43.307Z,1.60
2022-09-02T05:03:13.059Z,1.73
2022-09-02T05:05:41.744Z,1.93
2022-09-02T05:08:12.762Z,1.97
2022-09-02T05:10:40.557Z,1.63
2022-09-02T05:13:07.372Z,2.10
2022-09-02T05:15:39.071Z,1.63
2022-09-02T05:18:07.503Z,1.77
2022-09-02T05:20:34.497Z,1.90
2022-09-02T05:23:02.076Z,2.10
2022-09-02T05:25:28.994Z,1.70
2022-09-02T05:27:56.150Z,1.53
2022-09-02T05:30:23.150Z,1.67
2022-09-02T05:32:50.430Z,1.70
2022-09-02T05:35:18.561Z,1.43
2022-09-02T05:37:45.702Z,1.70
2022-09-02T05:40:14.685Z,1.80
2022-09-02T05:42:43.504Z,1.90
2022-09-02T05:45:12.393Z,1.73
2022-09-02T05:47:43.916Z,1.43
2022-09-02T05:50:10.852Z,1.90
2022-09-02T05:52:43.015Z,1.67
2022-09-02T05:55:10.570Z,1.80
2022-09-02T05:57:39.363Z,1.90
2022-09-02T06:00:08.762Z,1.80
2022-09-02T06:02:42.018Z,2.37
2022-09-02T06:05:13.544Z,1.70
2022-09-02T06:07:46.447Z,1.83
2022-09-02T06:10:14.065Z,1.70
2022-09-02T06:12:42.878Z,1.40
2022-09-02T06:15:10.934Z,1.60
2022-09-02T06:17:39.675Z,1.50
2022-09-02T06:20:07.641Z,1.33
2022-09-02T06:22:36.451Z,1.67
2022-09-02T06:25:03.607Z,1.80
2022-09-02T06:27:31.016Z,1.60
2022-09-02T06:29:59.462Z,1.50
2022-09-02T06:32:27.226Z,1.90
2022-09-02T06:34:59.873Z,1.73
2022-09-02T06:37:27.740Z,1.70
2022-09-02T06:39:55.943Z,1.67
2022-09-02T06:42:26.055Z,1.57
2022-09-02T06:45:24.260Z,1.83
2022-09-02T06:47:55.096Z,1.50
2022-09-02T06:50:22.084Z,1.67
2022-09-02T06:52:49.847Z,1.90
2022-09-02T06:55:18.067Z,1.80
2022-09-02T06:57:44.951Z,1.80
2022-09-02T07:00:13.658Z,1.47
2022-09-02T07:02:42.795Z,1.33
2022-09-02T07:05:10.077Z,1.80
2022-09-02T07:07:38.018Z,2.00
2022-09-02T07:10:09.779Z,1.63
2022-09-02T07:12:38.776Z,1.73
2022-09-02T07:15:09.329Z,1.73
2022-09-02T07:17:40.668Z,1.57
2022-09-02T07:20:12.326Z,1.60
2022-09-02T07:22:44.103Z,1.77
2022-09-02T07:25:14.444Z,1.50
2022-09-02T07:27:43.374Z,1.70
2022-09-02T07:30:11.311Z,2.00
2022-09-02T07:32:40.092Z,1.67
2022-09-02T07:35:09.219Z,1.63
2022-09-02T07:37:37.163Z,1.50
2022-09-02T07:40:07.544Z,1.60
2022-09-02T07:42:34.493Z,1.93
2022-09-02T07:45:01.444Z,1.53
2022-09-02T07:47:29.316Z,1.70
2022-09-02T07:52:44.748Z,1.33
2022-09-02T07:55:14.917Z,1.40
2022-09-02T07:57:43.694Z,1.60
2022-09-02T08:00:13.544Z,1.63
2022-09-02T08:02:46.270Z,1.57
2022-09-02T08:05:17.864Z,1.60
2022-09-02T08:07:45.115Z,1.80
2022-09-02T08:10:13.069Z,1.80
2022-09-02T08:12:41.400Z,2.00
2022-09-02T08:15:08.851Z,1.83
2022-09-02T08:17:35.916Z,1.93
2022-09-02T08:20:03.332Z,1.47
2022-09-02T08:25:05.894Z,1.70
2022-09-02T08:27:33.688Z,1.40
2022-09-02T08:30:01.448Z,1.50
2022-09-02T08:32:28.717Z,1.50
2022-09-02T08:34:55.624Z,1.40
2022-09-02T08:37:22.749Z,1.20
2022-09-02T08:39:49.574Z,1.57
2022-09-02T08:42:16.341Z,1.30
2022-09-02T08:44:43.153Z,1.33
2022-09-02T08:47:13.208Z,1.10
2022-09-02T08:49:42.067Z,1.50
2022-09-02T08:52:13.677Z,1.40
2022-09-02T08:54:48.382Z,1.20
2022-09-02T08:57:15.328Z,1.27
2022-09-02T08:59:44.058Z,1.23
2022-09-02T09:02:26.298Z,1.13
2022-09-02T09:05:06.180Z,1.30
2022-09-02T09:07:40.355Z,1.40
2022-09-02T09:10:22.496Z,1.43
2022-09-02T09:12:49.509Z,1.30
2022-09-02T09:15:34.101Z,1.33
2022-09-02T09:18:05.055Z,1.33
2022-09-02T09:20:33.237Z,1.20
2022-09-02T09:23:01.156Z,1.10
2022-09-02T09:25:31.704Z,1.43
2022-09-02T09:27:59.198Z,1.03
2022-09-02T09:30:26.140Z,1.10
2022-09-02T09:32:57.316Z,1.40
2022-09-02T09:35:24.610Z,1.30
2022-09-02T09:37:52.399Z,1.10
2022-09-02T09:40:21.624Z,1.10
2022-09-02T09:42:59.541Z,0.90
2022-09-02T09:45:32.308Z,1.07
2022-09-02T09:48:16.893Z,1.10
2022-09-02T09:50:44.378Z,1.10
2022-09-02T09:53:21.684Z,1.20
2022-09-02T09:56:05.309Z,1.10
2022-09-02T09:58:34.282Z,1.13
2022-09-02T10:01:21.367Z,0.80
2022-09-02T10:03:48.183Z,1.10
2022-09-02T10:06:19.973Z,1.03
2022-09-02T10:08:51.219Z,1.20
2022-09-02T10:11:22.824Z,0.83
2022-09-02T10:13:49.633Z,0.93
2022-09-02T10:16:25.400Z,0.87
2022-09-02T10:19:03.824Z,1.17
2022-09-02T10:21:46.608Z,1.10
2022-09-02T10:24:32.200Z,0.97
2022-09-02T10:27:00.131Z,1.13
2022-09-02T10:29:50.013Z,0.90
2022-09-02T10:32:35.393Z,1.10
2022-09-02T10:35:24.733Z,1.23
2022-09-02T10:38:11.785Z,1.07
2022-09-02T10:40:58.886Z,1.20
2022-09-02T10:43:44.479Z,1.30
2022-09-02T10:46:17.327Z,1.00
2022-09-02T10:48:53.563Z,0.90
2022-09-02T10:51:37.340Z,1.03
2022-09-02T10:54:11.654Z,1.33
2022-09-02T10:56:45.739Z,1.37
2022-09-02T10:59:25.827Z,1.30
2022-09-02T11:01:56.416Z,1.00
2022-09-02T11:04:27.957Z,0.90
2022-09-02T11:07:02.849Z,1.10
2022-09-02T11:09:37.120Z,1.30
2022-09-02T11:12:15.806Z,1.20
2022-09-02T11:15:04.253Z,1.27
2022-09-02T11:17:35.851Z,1.03
2022-09-02T11:20:12.628Z,1.40
2022-09-02T11:22:48.585Z,1.00
2022-09-02T11:25:26.269Z,1.10
2022-09-02T11:28:12.337Z,1.00
2022-09-02T11:30:47.430Z,1.33
2022-09-02T11:33:23.354Z,1.20
2022-09-02T11:35:50.918Z,1.00
2022-09-02T11:38:23.833Z,1.23
2022-09-02T11:43:46.153Z,0.85
2022-09-02T11:46:32.174Z,1.02
2022-09-02T11:49:17.974Z,1.20
2022-09-02T11:51:47.924Z,0.97
2022-09-02T11:54:17.533Z,1.10
2022-09-02T11:56:49.285Z,0.97
2022-09-02T11:59:20.368Z,1.00
2022-09-02T12:01:48.348Z,0.90
2022-09-02T12:04:56.274Z,1.03
2022-09-02T12:07:12.932Z,0.82
2022-09-02T12:09:42.695Z,1.10
2022-09-02T12:12:10.179Z,0.80
2022-09-02T12:14:42.930Z,0.90
2022-09-02T12:17:11.540Z,1.07
2022-09-02T12:19:40.206Z,1.00
2022-09-02T12:22:17.183Z,1.07
2022-09-02T12:24:50.074Z,1.07
2022-09-02T12:27:24.798Z,0.90
2022-09-02T12:29:52.414Z,0.90
2022-09-02T12:32:39.384Z,1.10
2022-09-02T12:35:11.863Z,1.03
2022-09-02T12:37:53.834Z,1.00
2022-09-02T12:40:31.458Z,1.00
2022-09-02T12:43:00.975Z,1.00
2022-09-02T12:45:30.577Z,1.00
2022-09-02T12:47:57.296Z,1.00
2022-09-02T12:50:32.417Z,0.80
2022-09-02T12:53:08.244Z,1.07
2022-09-02T12:55:35.817Z,1.00
2022-09-02T12:58:14.600Z,1.00
2022-09-02T13:00:47.279Z,1.20
2022-09-02T13:03:23.391Z,1.10
2022-09-02T13:05:55.006Z,1.00
2022-09-02T13:08:39.985Z,0.80
2022-09-02T13:11:25.636Z,0.87
2022-09-02T13:14:01.456Z,1.00
2022-09-02T13:16:28.264Z,1.00
2022-09-02T13:19:12.274Z,0.90
2022-09-02T13:21:41.032Z,0.93
2022-09-02T13:24:23.178Z,1.00
2022-09-02T13:26:54.575Z,1.00
2022-09-02T13:29:24.432Z,0.90
2022-09-02T13:32:04.978Z,0.90
2022-09-02T13:34:32.029Z,0.93
2022-09-02T13:36:58.855Z,0.97
2022-09-02T13:39:26.704Z,1.13
2022-09-02T13:41:54.175Z,0.90
2022-09-02T13:44:22.580Z,1.00
2022-09-02T13:46:51.720Z,1.00
2022-09-02T13:49:22.923Z,0.93
2022-09-02T13:51:51.970Z,1.00
2022-09-02T13:54:38.175Z,1.00
2022-09-02T13:57:06.946Z,1.13
2022-09-02T13:59:34.692Z,0.80
2022-09-02T14:02:15.594Z,1.00
2022-09-02T14:04:42.728Z,0.83
2022-09-02T14:07:10.097Z,1.10
2022-09-02T14:09:37.324Z,0.90
2022-09-02T14:12:05.586Z,1.00
2022-09-02T14:14:32.652Z,0.90
2022-09-02T14:17:22.670Z,1.20
2022-09-02T14:19:49.825Z,0.77
2022-09-02T14:22:29.528Z,0.90
2022-09-02T14:24:56.405Z,1.03
2022-09-02T14:27:23.945Z,0.77
2022-09-02T14:29:57.549Z,1.07
2022-09-02T14:32:25.452Z,1.00
2022-09-02T14:35:18.530Z,1.00
2022-09-02T14:37:49.971Z,0.90
2022-09-02T14:40:17.732Z,1.00
2022-09-02T14:42:48.804Z,1.07
2022-09-02T14:45:24.411Z,1.20
2022-09-02T14:47:51.410Z,1.10
2022-09-02T14:50:19.604Z,1.10
2022-09-02T14:52:48.538Z,1.00
2022-09-02T14:55:38.350Z,0.90
2022-09-02T14:58:05.165Z,1.00
2022-09-02T15:00:34.702Z,0.90
2022-09-02T15:03:01.699Z,0.87
2022-09-02T15:05:28.651Z,1.07
2022-09-02T15:07:56.706Z,1.00
2022-09-02T15:10:23.456Z,0.80
2022-09-02T15:12:52.087Z,1.10
2022-09-02T15:15:18.871Z,1.00
2022-09-02T15:17:45.721Z,0.90
2022-09-02T15:20:12.784Z,0.90
2022-09-02T15:22:39.616Z,1.00
2022-09-02T15:25:07.986Z,0.97
2022-09-02T15:27:35.230Z,0.90
2022-09-02T15:30:02.383Z,0.97
2022-09-02T15:32:29.153Z,0.93
2022-09-02T15:34:55.963Z,1.03
2022-09-02T15:37:22.833Z,1.00
2022-09-02T15:39:50.165Z,0.97
2022-09-02T15:42:18.241Z,0.80
2022-09-02T15:44:46.186Z,0.90
2022-09-02T15:47:12.960Z,0.83
2022-09-02T15:49:39.768Z,1.03
2022-09-02T15:52:06.901Z,0.90
2022-09-02T15:54:33.691Z,0.80
2022-09-02T15:57:00.484Z,1.10
2022-09-02T15:59:28.067Z,1.10
2022-09-02T16:01:56.083Z,1.03
2022-09-02T16:04:23.357Z,1.10
2022-09-02T16:06:52.247Z,1.00
2022-09-02T16:09:19.475Z,1.10
2022-09-02T16:11:50.685Z,1.10
2022-09-02T16:14:20.444Z,1.47
2022-09-02T16:16:49.240Z,0.90
2022-09-02T16:19:16.228Z,1.27
2022-09-02T16:21:43.152Z,1.20
2022-09-02T16:24:10.160Z,1.07
2022-09-02T16:26:41.291Z,1.00
2022-09-02T16:29:09.576Z,1.30
2022-09-02T16:31:38.428Z,1.20
2022-09-02T16:34:09.736Z,0.97
2022-09-02T16:36:37.748Z,1.10
2022-09-02T16:39:05.294Z,1.00
2022-09-02T16:41:34.603Z,1.30
2022-09-02T16:44:21.696Z,1.13
2022-09-02T16:46:49.680Z,1.20
2022-09-02T16:49:18.474Z,0.87
2022-09-02T16:51:46.387Z,1.03
2022-09-02T16:54:17.808Z,1.20
2022-09-02T16:56:48.456Z,0.83
2022-09-02T16:59:15.439Z,1.00
2022-09-02T17:01:42.637Z,1.27
2022-09-02T17:04:09.482Z,1.00
2022-09-02T17:06:41.275Z,0.97
2022-09-02T17:09:09.092Z,0.80
2022-09-02T17:11:37.479Z,0.90
2022-09-02T17:14:09.383Z,1.00
2022-09-02T17:16:37.889Z,1.10
2022-09-02T17:19:05.195Z,1.20
2022-09-02T17:21:36.819Z,1.20
2022-09-02T17:24:05.552Z,1.20
2022-09-02T17:26:34.861Z,1.30
2022-09-02T17:29:06.686Z,1.10
2022-09-02T17:31:34.029Z,1.20
2022-09-02T17:34:01.827Z,1.33
2022-09-02T17:36:29.378Z,1.17
2022-09-02T17:38:57.068Z,1.50
2022-09-02T17:41:43.022Z,1.20
2022-09-02T17:44:11.265Z,1.20
2022-09-02T17:46:38.356Z,1.20
2022-09-02T17:49:16.738Z,1.20
2022-09-02T17:51:44.949Z,1.40
2022-09-02T17:54:12.513Z,1.30
2022-09-02T17:56:40.696Z,1.40
2022-09-02T17:59:26.174Z,1.77
2022-09-02T18:01:59.164Z,1.40
2022-09-02T18:04:38.799Z,1.67
2022-09-02T18:07:11.624Z,1.80
2022-09-02T18:09:39.071Z,1.40
2022-09-02T18:12:07.912Z,1.67
2022-09-02T18:14:38.015Z,1.90
2022-09-02T18:17:04.852Z,2.03
2022-09-02T18:20:09.389Z,1.67
2022-09-02T18:22:55.088Z,1.70
2022-09-02T18:25:45.915Z,1.60
2022-09-02T18:28:21.836Z,1.67
2022-09-02T18:30:58.909Z,1.50
2022-09-02T18:33:43.504Z,1.50
2022-09-02T18:36:25.651Z,1.60
2022-09-02T18:39:01.543Z,1.53
2022-09-02T18:41:48.968Z,1.50
2022-09-02T18:44:23.902Z,1.30
2022-09-02T18:47:05.111Z,1.60
2022-09-02T18:49:33.692Z,1.47
2022-09-02T18:52:02.322Z,1.23
2022-09-02T18:54:50.545Z,1.30
2022-09-02T18:57:17.343Z,1.30
2022-09-02T19:00:01.094Z,1.27
2022-09-02T19:02:32.829Z,1.50
2022-09-02T19:05:01.535Z,1.10
2022-09-02T19:07:47.336Z,1.23
2022-09-02T19:10:14.134Z,1.30
2022-09-02T19:12:40.984Z,1.40
2022-09-02T19:15:09.462Z,1.83
2022-09-02T19:17:40.316Z,1.73
2022-09-02T19:20:07.899Z,1.47
2022-09-02T19:22:40.566Z,1.40
2022-09-02T19:25:12.275Z,1.47
2022-09-02T19:27:41.392Z,1.63
2022-09-02T19:30:10.583Z,1.43
2022-09-02T19:32:38.401Z,1.50
2022-09-02T19:35:07.535Z,1.53
2022-09-02T19:37:44.223Z,1.33
2022-09-02T19:40:12.169Z,1.30
2022-09-02T19:42:41.658Z,1.50
2022-09-02T19:45:10.995Z,1.80
2022-09-02T19:50:27.956Z,1.63
2022-09-02T19:52:55.521Z,1.40
2022-09-02T19:55:22.644Z,1.40
2022-09-02T19:57:50.161Z,1.50
2022-09-02T20:00:17.170Z,1.10
2022-09-02T20:02:44.101Z,1.60
2022-09-02T20:05:12.329Z,1.40
2022-09-02T20:07:39.140Z,1.30
2022-09-02T20:10:07.078Z,1.40
2022-09-02T20:12:34.840Z,1.60
2022-09-02T20:15:03.713Z,1.70
2022-09-02T20:17:31.552Z,1.30
2022-09-02T20:20:00.973Z,1.40
2022-09-02T20:22:29.972Z,1.37
2022-09-02T20:24:57.288Z,1.57
2022-09-02T20:27:42.956Z,1.23
2022-09-02T20:30:09.908Z,1.50
2022-09-02T20:32:44.513Z,1.53
2022-09-02T20:35:20.559Z,1.40
2022-09-02T20:37:54.370Z,1.40
2022-09-02T20:40:24.449Z,1.50
2022-09-02T20:43:07.391Z,1.50
2022-09-02T20:45:54.478Z,1.30
2022-09-02T20:48:38.054Z,1.20
2022-09-02T20:51:20.018Z,1.50
2022-09-02T20:54:05.373Z,1.33
2022-09-02T20:56:47.338Z,1.40
2022-09-02T20:59:14.223Z,1.30
2022-09-02T21:01:42.127Z,1.23
2022-09-02T21:04:29.297Z,1.40
2022-09-02T21:07:14.776Z,1.53
2022-09-02T21:09:50.669Z,1.20
2022-09-02T21:12:32.395Z,1.40
2022-09-02T21:15:09.135Z,1.10
2022-09-02T21:17:48.915Z,1.20
2022-09-02T21:20:33.693Z,1.63
2022-09-02T21:23:01.371Z,1.17
2022-09-02T21:25:32.451Z,1.50
2022-09-02T21:28:20.169Z,1.40
2022-09-02T21:30:48.948Z,1.20
2022-09-02T21:33:16.554Z,1.40
2022-09-02T21:35:51.042Z,1.43
2022-09-02T21:38:44.555Z,1.17
2022-09-02T21:41:29.344Z,1.43
2022-09-02T21:44:02.382Z,1.43
2022-09-02T21:46:29.458Z,1.57
2022-09-02T21:49:12.681Z,1.57
2022-09-02T21:51:45.635Z,1.60
2022-09-02T21:54:24.971Z,1.37
2022-09-02T21:56:54.860Z,1.30
2022-09-02T21:59:40.803Z,1.70
2022-09-02T22:02:12.824Z,1.20
2022-09-02T22:04:49.597Z,1.60
2022-09-02T22:07:20.008Z,1.27
2022-09-02T22:09:50.539Z,1.60
2022-09-02T22:12:17.752Z,1.57
2022-09-02T22:14:50.591Z,1.40
2022-09-02T22:17:30.298Z,1.60
2022-09-02T22:19:59.257Z,1.40
2022-09-02T22:22:28.079Z,1.30
2022-09-02T22:24:55.450Z,1.63
2022-09-02T22:27:26.095Z,1.50
2022-09-02T22:29:59.949Z,1.47
2022-09-02T22:32:34.693Z,1.60
2022-09-02T22:35:07.340Z,1.30
2022-09-02T22:37:40.739Z,1.50
2022-09-02T22:40:12.439Z,1.70
2022-09-02T22:42:40.674Z,1.50
2022-09-02T22:45:26.266Z,1.60
2022-09-02T22:48:21.025Z,1.67
2022-09-02T22:51:10.239Z,1.50
2022-09-02T22:53:37.035Z,1.50
2022-09-02T22:56:06.785Z,1.50
2022-09-02T22:58:47.565Z,1.93
2022-09-02T23:01:31.071Z,1.83
2022-09-02T23:04:07.040Z,1.97
2022-09-02T23:06:33.879Z,1.73
2022-09-02T23:09:11.388Z,1.70
2022-09-02T23:11:57.190Z,1.70
2022-09-02T23:14:48.902Z,1.60
2022-09-02T23:17:25.801Z,1.53
2022-09-02T23:19:56.404Z,1.40
2022-09-02T23:22:42.003Z,1.53
2022-09-02T23:25:30.070Z,1.40
2022-09-02T23:28:05.709Z,1.57
2022-09-02T23:30:32.520Z,1.40
2022-09-02T23:33:03.556Z,1.40
2022-09-02T23:35:33.691Z,1.40
2022-09-02T23:38:06.428Z,1.60
2022-09-02T23:40:39.586Z,1.70
2022-09-02T23:43:06.693Z,1.40
2022-09-02T23:45:34.576Z,1.50
2022-09-02T23:48:17.826Z,1.47
2022-09-02T23:50:47.018Z,1.73
2022-09-02T23:53:22.641Z,1.30
2022-09-02T23:55:56.824Z,1.33
2022-09-02T23:58:32.790Z,1.47
